createdAt,value
2022-11-04T00:00:00.360Z,2.3
2022-11-04T00:05:00.213Z,0.7
2022-11-04T00:10:00.267Z,0.5
2022-11-04T00:15:00.315Z,1.3
2022-11-04T00:20:00.268Z,0.5
2022-11-04T00:25:00.271Z,0.3
2022-11-04T00:30:01.483Z,0.3
2022-11-04T00:35:00.257Z,0.2
2022-11-04T00:40:00.396Z,0.0
2022-11-04T00:45:00.258Z,0.0
2022-11-04T00:50:00.266Z,0.0
2022-11-04T00:55:00.240Z,0.0
2022-11-04T01:00:00.283Z,0.0
2022-11-04T01:05:00.258Z,0.8
2022-11-04T01:10:00.258Z,0.3
2022-11-04T01:15:00.263Z,0.5
2022-11-04T01:20:00.299Z,0.1
2022-11-04T01:25:00.263Z,0.3
2022-11-04T01:30:00.291Z,1.5
2022-11-04T01:35:00.236Z,0.6
2022-11-04T01:40:00.282Z,0.1
2022-11-04T01:45:00.282Z,1.1
2022-11-04T01:50:00.255Z,0.4
2022-11-04T01:55:00.302Z,1.7
2022-11-04T02:00:00.353Z,1.1
2022-11-04T02:05:00.268Z,3.5
2022-11-04T02:10:00.246Z,0.5
2022-11-04T02:15:00.274Z,1.2
2022-11-04T02:20:00.300Z,0.1
2022-11-04T02:25:00.250Z,0.0
2022-11-04T02:30:00.273Z,0.0
2022-11-04T02:35:00.277Z,0.0
2022-11-04T02:40:00.253Z,0.0
2022-11-04T02:45:00.287Z,0.5
2022-11-04T02:50:00.267Z,1.2
2022-11-04T02:55:00.256Z,0.9
2022-11-04T03:00:00.257Z,0.7
2022-11-04T03:05:00.246Z,2.4
2022-11-04T03:10:00.283Z,0.0
2022-11-04T03:15:00.303Z,1.2
2022-11-04T03:20:00.308Z,0.4
2022-11-04T03:25:00.433Z,0.3
2022-11-04T03:30:00.548Z,0.0
2022-11-04T03:35:00.285Z,0.6
2022-11-04T03:40:00.319Z,0.6
2022-11-04T03:45:00.429Z,0.0
2022-11-04T03:50:00.280Z,0.0
2022-11-04T03:55:00.254Z,0.3
2022-11-04T04:00:00.277Z,0.1
2022-11-04T04:05:00.251Z,0.0
2022-11-04T04:10:00.287Z,0.0
2022-11-04T04:15:00.331Z,0.0
2022-11-04T04:20:00.278Z,0.0
2022-11-04T04:25:00.238Z,0.0
2022-11-04T04:30:00.278Z,0.0
2022-11-04T04:35:00.260Z,0.1
2022-11-04T04:40:00.274Z,0.0
2022-11-04T04:45:00.282Z,0.0
2022-11-04T04:50:00.271Z,0.0
2022-11-04T04:55:00.244Z,0.0
2022-11-04T05:00:00.299Z,0.0
2022-11-04T05:05:00.467Z,0.0
2022-11-04T05:10:00.290Z,0.0
2022-11-04T05:15:00.344Z,0.0
2022-11-04T05:20:00.245Z,0.9
2022-11-04T05:25:00.235Z,0.1
2022-11-04T05:30:00.341Z,0.0
2022-11-04T05:35:00.240Z,0.1
2022-11-04T05:40:00.284Z,0.0
2022-11-04T05:45:00.251Z,0.0
2022-11-04T05:50:00.251Z,0.0
2022-11-04T05:55:00.235Z,0.0
2022-11-04T06:00:00.361Z,0.0
2022-11-04T06:05:00.229Z,0.0
2022-11-04T06:10:00.267Z,0.0
2022-11-04T06:15:00.264Z,0.0
2022-11-04T06:20:00.436Z,0.0
2022-11-04T06:25:00.254Z,0.0
2022-11-04T06:30:00.270Z,0.0
2022-11-04T06:35:00.260Z,0.0
2022-11-04T06:40:00.327Z,0.0
2022-11-04T06:45:00.273Z,0.0
2022-11-04T06:50:00.271Z,0.0
2022-11-04T06:55:00.255Z,0.0
2022-11-04T07:00:00.295Z,0.0
2022-11-04T07:05:00.512Z,0.0
2022-11-04T07:10:00.268Z,0.6
2022-11-04T07:15:00.265Z,2.1
2022-11-04T07:20:00.285Z,0.2
2022-11-04T07:25:00.218Z,0.5
2022-11-04T07:30:00.267Z,0.4
2022-11-04T07:35:00.228Z,0.7
2022-11-04T07:40:00.280Z,0.4
2022-11-04T07:45:00.273Z,0.5
2022-11-04T07:50:00.661Z,0.2
2022-11-04T07:55:00.218Z,0.0
2022-11-04T08:00:00.288Z,0.1
2022-11-04T08:05:00.235Z,0.2
2022-11-04T08:10:00.273Z,0.6
2022-11-04T08:15:00.275Z,0.1
2022-11-04T08:20:00.279Z,0.4
2022-11-04T08:25:00.270Z,0.4
2022-11-04T08:30:00.312Z,0.2
2022-11-04T08:35:00.263Z,0.1
2022-11-04T08:40:00.293Z,0.0
2022-11-04T08:45:00.254Z,0.9
2022-11-04T08:50:00.263Z,0.9
2022-11-04T08:55:00.257Z,3.0
2022-11-04T09:00:00.335Z,3.2
2022-11-04T09:05:00.275Z,2.4
2022-11-04T09:10:00.266Z,2.1
2022-11-04T09:15:00.245Z,2.0
2022-11-04T09:20:00.286Z,2.6
2022-11-04T09:25:00.311Z,0.9
2022-11-04T09:30:00.816Z,0.6
2022-11-04T09:35:00.340Z,2.0
2022-11-04T09:40:00.328Z,1.3
2022-11-04T09:45:22.719Z,2.2
2022-11-04T09:50:00.335Z,2.2
2022-11-04T09:55:00.297Z,6.3
2022-11-04T10:00:00.411Z,7.3
2022-11-04T10:05:00.356Z,5.8
2022-11-04T10:10:00.359Z,3.6
2022-11-04T10:15:00.329Z,2.9
2022-11-04T10:20:00.371Z,0.9
2022-11-04T10:25:00.301Z,2.4
2022-11-04T10:30:00.332Z,2.7
2022-11-04T10:35:00.297Z,2.5
2022-11-04T10:40:00.343Z,1.2
2022-11-04T10:45:00.326Z,2.8
2022-11-04T10:50:29.676Z,2.8
2022-11-04T10:55:00.305Z,1.5
2022-11-04T11:00:00.299Z,3.4
2022-11-04T11:05:00.237Z,1.1
2022-11-04T11:10:00.257Z,1.4
2022-11-04T11:15:00.261Z,4.6
2022-11-04T11:20:00.276Z,2.2
2022-11-04T11:25:00.388Z,3.7
2022-11-04T11:30:00.310Z,4.7
2022-11-04T11:35:00.322Z,4.7
2022-11-04T11:40:00.253Z,6.2
2022-11-04T11:45:00.394Z,4.5
2022-11-04T11:50:00.282Z,5.2
2022-11-04T11:55:00.253Z,2.9
2022-11-04T12:00:37.234Z,3.3
2022-11-04T12:10:00.398Z,2.7
2022-11-04T12:15:00.256Z,1.4
2022-11-04T12:20:00.244Z,0.8
2022-11-04T12:25:00.241Z,1.0
2022-11-04T12:30:00.298Z,0.1
2022-11-04T12:35:00.255Z,0.3
2022-11-04T12:40:00.274Z,0.9
2022-11-04T12:45:00.244Z,0.1
2022-11-04T12:50:00.265Z,0.0
2022-11-04T12:55:00.254Z,0.1
2022-11-04T13:00:00.283Z,0.9
2022-11-04T13:05:00.331Z,0.0
2022-11-04T13:10:00.393Z,0.0
2022-11-04T13:15:00.268Z,0.1
2022-11-04T13:20:00.252Z,0.3
2022-11-04T13:25:00.238Z,0.1
2022-11-04T13:30:00.281Z,0.0
2022-11-04T13:35:00.243Z,0.0
2022-11-04T13:40:00.277Z,0.0
2022-11-04T13:45:00.317Z,0.0
2022-11-04T13:50:00.251Z,0.0
2022-11-04T13:55:00.239Z,0.0
2022-11-04T14:00:00.246Z,0.0
2022-11-04T14:05:00.235Z,0.2
2022-11-04T14:10:00.276Z,0.0
2022-11-04T14:15:00.280Z,0.0
2022-11-04T14:20:00.298Z,0.2
2022-11-04T14:25:00.332Z,0.0
2022-11-04T14:30:00.282Z,0.0
2022-11-04T14:35:00.228Z,0.7
2022-11-04T14:40:00.254Z,0.1
2022-11-04T14:45:00.307Z,0.2
2022-11-04T14:50:00.329Z,0.0
2022-11-04T14:55:00.242Z,0.4
2022-11-04T15:00:00.458Z,0.5
2022-11-04T15:05:00.312Z,0.1
2022-11-04T15:10:00.251Z,0.1
2022-11-04T15:15:00.311Z,0.9
2022-11-04T15:20:00.301Z,0.2
2022-11-04T15:25:00.257Z,0.3
2022-11-04T15:30:00.327Z,2.1
2022-11-04T15:35:00.221Z,2.2
2022-11-04T15:40:00.311Z,2.1
2022-11-04T15:45:00.253Z,2.1
2022-11-04T15:50:00.241Z,0.9
2022-11-04T15:55:00.287Z,0.3
2022-11-04T16:00:00.295Z,0.3
2022-11-04T16:05:00.248Z,0.5
2022-11-04T16:10:08.535Z,1.7
2022-11-04T16:15:00.285Z,1.9
2022-11-04T16:20:00.250Z,0.9
2022-11-04T16:25:00.214Z,2.2
2022-11-04T16:30:00.511Z,0.5
2022-11-04T16:35:00.240Z,1.3
2022-11-04T16:40:04.508Z,0.6
2022-11-04T16:45:03.296Z,0.9
2022-11-04T16:50:00.255Z,0.4
2022-11-04T16:55:00.247Z,0.7
2022-11-04T17:00:00.916Z,0.2
2022-11-04T17:05:00.245Z,0.5
2022-11-04T17:10:00.280Z,0.1
2022-11-04T17:15:00.248Z,0.3
2022-11-04T17:20:00.292Z,0.8
2022-11-04T17:25:00.254Z,0.3
2022-11-04T17:30:00.282Z,0.1
2022-11-04T17:35:00.336Z,0.4
2022-11-04T17:40:00.452Z,1.7
2022-11-04T17:45:00.321Z,0.6
2022-11-04T17:50:00.260Z,0.0
2022-11-04T17:55:00.250Z,0.0
2022-11-04T18:00:00.356Z,0.2
2022-11-04T18:05:00.227Z,1.8
2022-11-04T18:10:00.335Z,0.6
2022-11-04T18:15:00.285Z,1.2
2022-11-04T18:20:00.434Z,0.1
2022-11-04T18:25:00.516Z,1.5
2022-11-04T18:30:00.272Z,0.2
2022-11-04T18:35:00.294Z,0.9
2022-11-04T18:40:00.262Z,0.6
2022-11-04T18:45:00.256Z,1.3
2022-11-04T18:50:00.288Z,0.5
2022-11-04T18:55:00.232Z,0.4
2022-11-04T19:00:00.281Z,0.4
2022-11-04T19:05:00.252Z,0.8
2022-11-04T19:10:00.283Z,0.7
2022-11-04T19:15:00.285Z,0.5
2022-11-04T19:20:00.317Z,0.3
2022-11-04T19:25:00.265Z,0.2
2022-11-04T19:30:00.337Z,1.4
2022-11-04T19:35:00.271Z,1.1
2022-11-04T19:40:00.450Z,0.7
2022-11-04T19:45:00.282Z,0.5
2022-11-04T19:50:00.288Z,0.5
2022-11-04T19:55:00.335Z,1.0
2022-11-04T20:00:00.274Z,1.1
2022-11-04T20:05:00.227Z,0.6
2022-11-04T20:10:00.260Z,0.6
2022-11-04T20:15:00.244Z,1.0
2022-11-04T20:20:00.266Z,1.3
2022-11-04T20:25:00.242Z,1.8
2022-11-04T20:30:00.272Z,1.5
2022-11-04T20:35:00.274Z,0.2
2022-11-04T20:40:00.586Z,0.3
2022-11-04T20:45:00.300Z,0.0
2022-11-04T20:50:00.280Z,0.7
2022-11-04T20:55:00.249Z,1.6
2022-11-04T21:00:00.314Z,1.4
2022-11-04T21:05:00.256Z,0.6
2022-11-04T21:10:00.329Z,1.8
2022-11-04T21:15:00.262Z,1.0
2022-11-04T21:20:00.531Z,0.3
2022-11-04T21:25:00.288Z,0.8
2022-11-04T21:30:00.399Z,1.0
2022-11-04T21:35:00.266Z,0.9
2022-11-04T21:40:00.276Z,0.1
2022-11-04T21:45:00.278Z,2.4
2022-11-04T21:50:00.259Z,0.6
2022-11-04T21:55:00.300Z,2.3
2022-11-04T22:00:00.337Z,2.2
2022-11-04T22:05:04.658Z,3.1
2022-11-04T22:10:04.005Z,2.3
2022-11-04T22:15:01.722Z,2.4
2022-11-04T22:20:01.276Z,2.3
2022-11-04T22:25:00.221Z,3.3
2022-11-04T22:30:00.348Z,2.4
2022-11-04T22:35:00.245Z,4.0
2022-11-04T22:40:00.271Z,3.3
2022-11-04T22:45:00.309Z,3.0
2022-11-04T22:50:00.250Z,3.8
2022-11-04T22:55:00.230Z,2.8
2022-11-04T23:00:00.294Z,2.1
2022-11-04T23:05:00.218Z,3.6
2022-11-04T23:10:00.257Z,2.9
2022-11-04T23:15:00.259Z,3.7
2022-11-04T23:20:00.306Z,3.9
2022-11-04T23:25:00.295Z,4.0
2022-11-04T23:30:00.279Z,2.9
2022-11-04T23:35:00.238Z,3.6
2022-11-04T23:40:00.270Z,4.0
2022-11-04T23:45:00.239Z,4.0
2022-11-04T23:50:00.315Z,4.5
2022-11-04T23:55:00.323Z,4.9
